sensor_id;sensor_type;location;lat;lon;timestamp;P1;durP1;ratioP1;P2;durP2;ratioP2
47912;SDS011;33676;51.006;17.180;2022-09-09T00:02:01;11.20;;;10.10;;
47912;SDS011;33676;51.006;17.180;2022-09-09T00:04:45;12.10;;;10.80;;
47912;SDS011;33676;51.006;17.180;2022-09-09T00:07:43;12.80;;;11.60;;
47912;SDS011;33676;51.006;17.180;2022-09-09T00:10:29;13.50;;;12.30;;
47912;SDS011;33676;51.006;17.180;2022-09-09T00:13:22;13.20;;;10.70;;
47912;SDS011;33676;51.006;17.180;2022-09-09T00:16:15;11.50;;;10.40;;
47912;SDS011;33676;51.006;17.180;2022-09-09T00:21:30;10.20;;;9.40;;
47912;SDS011;33676;51.006;17.180;2022-09-09T00:24:34;11.10;;;10.10;;
47912;SDS011;33676;51.006;17.180;2022-09-09T00:27:45;11.00;;;9.90;;
47912;SDS011;33676;51.006;17.180;2022-09-09T00:30:25;11.40;;;9.80;;
47912;SDS011;33676;51.006;17.180;2022-09-09T00:33:00;11.40;;;10.30;;
47912;SDS011;33676;51.006;17.180;2022-09-09T00:35:48;14.80;;;11.40;;
47912;SDS011;33676;51.006;17.180;2022-09-09T00:38:35;12.00;;;9.80;;
47912;SDS011;33676;51.006;17.180;2022-09-09T00:44:35;10.60;;;9.70;;
47912;SDS011;33676;51.006;17.180;2022-09-09T00:56:42;9.20;;;8.30;;
47912;SDS011;33676;51.006;17.180;2022-09-09T00:59:07;9.30;;;8.60;;
47912;SDS011;33676;51.006;17.180;2022-09-09T01:01:55;9.50;;;8.80;;
47912;SDS011;33676;51.006;17.180;2022-09-09T01:04:32;10.00;;;9.00;;
47912;SDS011;33676;51.006;17.180;2022-09-09T01:07:12;10.90;;;10.10;;
47912;SDS011;33676;51.006;17.180;2022-09-09T01:10:07;10.50;;;9.60;;
47912;SDS011;33676;51.006;17.180;2022-09-09T01:12:43;10.60;;;9.40;;
47912;SDS011;33676;51.006;17.180;2022-09-09T01:15:20;9.80;;;9.00;;
47912;SDS011;33676;51.006;17.180;2022-09-09T01:18:08;9.60;;;8.70;;
47912;SDS011;33676;51.006;17.180;2022-09-09T01:24:12;10.60;;;9.70;;
47912;SDS011;33676;51.006;17.180;2022-09-09T01:26:49;10.10;;;9.10;;
47912;SDS011;33676;51.006;17.180;2022-09-09T01:29:21;10.80;;;9.80;;
47912;SDS011;33676;51.006;17.180;2022-09-09T01:31:58;9.90;;;9.00;;
47912;SDS011;33676;51.006;17.180;2022-09-09T01:34:33;10.80;;;9.90;;
47912;SDS011;33676;51.006;17.180;2022-09-09T01:37:10;11.40;;;10.40;;
47912;SDS011;33676;51.006;17.180;2022-09-09T01:39:44;10.40;;;9.50;;
47912;SDS011;33676;51.006;17.180;2022-09-09T01:42:14;8.80;;;8.10;;
47912;SDS011;33676;51.006;17.180;2022-09-09T01:44:44;11.10;;;10.10;;
47912;SDS011;33676;51.006;17.180;2022-09-09T01:47:12;10.40;;;9.50;;
47912;SDS011;33676;51.006;17.180;2022-09-09T01:49:40;11.00;;;10.00;;
47912;SDS011;33676;51.006;17.180;2022-09-09T01:52:09;13.00;;;11.00;;
47912;SDS011;33676;51.006;17.180;2022-09-09T01:54:37;10.50;;;9.70;;
47912;SDS011;33676;51.006;17.180;2022-09-09T02:00:13;9.70;;;8.80;;
47912;SDS011;33676;51.006;17.180;2022-09-09T02:06:14;8.90;;;8.20;;
47912;SDS011;33676;51.006;17.180;2022-09-09T02:08:46;9.40;;;8.50;;
47912;SDS011;33676;51.006;17.180;2022-09-09T02:11:22;9.80;;;8.70;;
47912;SDS011;33676;51.006;17.180;2022-09-09T02:14:01;10.60;;;9.60;;
47912;SDS011;33676;51.006;17.180;2022-09-09T02:16:48;10.20;;;9.30;;
47912;SDS011;33676;51.006;17.180;2022-09-09T02:19:21;10.40;;;9.50;;
47912;SDS011;33676;51.006;17.180;2022-09-09T02:21:55;11.10;;;10.00;;
47912;SDS011;33676;51.006;17.180;2022-09-09T02:24:27;9.20;;;8.50;;
47912;SDS011;33676;51.006;17.180;2022-09-09T02:26:58;10.20;;;9.10;;
47912;SDS011;33676;51.006;17.180;2022-09-09T02:29:34;10.30;;;9.50;;
47912;SDS011;33676;51.006;17.180;2022-09-09T02:32:09;11.20;;;9.60;;
47912;SDS011;33676;51.006;17.180;2022-09-09T02:34:46;11.10;;;10.00;;
47912;SDS011;33676;51.006;17.180;2022-09-09T02:37:19;10.00;;;9.20;;
47912;SDS011;33676;51.006;17.180;2022-09-09T02:39:53;11.20;;;10.20;;
47912;SDS011;33676;51.006;17.180;2022-09-09T02:42:21;10.30;;;9.30;;
47912;SDS011;33676;51.006;17.180;2022-09-09T02:44:50;9.80;;;8.90;;
47912;SDS011;33676;51.006;17.180;2022-09-09T02:50:25;9.50;;;8.80;;
47912;SDS011;33676;51.006;17.180;2022-09-09T02:53:10;9.80;;;8.80;;
47912;SDS011;33676;51.006;17.180;2022-09-09T02:55:51;10.10;;;9.20;;
47912;SDS011;33676;51.006;17.180;2022-09-09T02:58:33;9.90;;;9.10;;
47912;SDS011;33676;51.006;17.180;2022-09-09T03:01:02;9.90;;;9.10;;
47912;SDS011;33676;51.006;17.180;2022-09-09T03:03:31;9.80;;;8.90;;
47912;SDS011;33676;51.006;17.180;2022-09-09T03:06:00;8.80;;;8.10;;
47912;SDS011;33676;51.006;17.180;2022-09-09T03:08:29;9.90;;;9.00;;
47912;SDS011;33676;51.006;17.180;2022-09-09T03:10:58;9.60;;;8.70;;
47912;SDS011;33676;51.006;17.180;2022-09-09T03:13:29;10.70;;;9.70;;
47912;SDS011;33676;51.006;17.180;2022-09-09T03:15:57;11.10;;;10.00;;
47912;SDS011;33676;51.006;17.180;2022-09-09T03:18:26;10.10;;;9.20;;
47912;SDS011;33676;51.006;17.180;2022-09-09T03:20:56;10.10;;;9.40;;
47912;SDS011;33676;51.006;17.180;2022-09-09T03:23:25;10.20;;;9.40;;
47912;SDS011;33676;51.006;17.180;2022-09-09T03:25:54;10.70;;;9.70;;
47912;SDS011;33676;51.006;17.180;2022-09-09T03:28:25;11.70;;;10.50;;
47912;SDS011;33676;51.006;17.180;2022-09-09T03:31:04;11.60;;;9.80;;
47912;SDS011;33676;51.006;17.180;2022-09-09T03:33:33;10.40;;;9.60;;
47912;SDS011;33676;51.006;17.180;2022-09-09T03:36:05;10.70;;;9.80;;
47912;SDS011;33676;51.006;17.180;2022-09-09T03:38:35;9.10;;;8.40;;
47912;SDS011;33676;51.006;17.180;2022-09-09T03:41:04;10.90;;;10.00;;
47912;SDS011;33676;51.006;17.180;2022-09-09T03:43:35;10.00;;;9.10;;
47912;SDS011;33676;51.006;17.180;2022-09-09T03:46:04;10.30;;;9.50;;
47912;SDS011;33676;51.006;17.180;2022-09-09T03:48:33;8.60;;;8.00;;
47912;SDS011;33676;51.006;17.180;2022-09-09T03:51:01;8.80;;;8.00;;
47912;SDS011;33676;51.006;17.180;2022-09-09T03:53:31;10.50;;;9.40;;
47912;SDS011;33676;51.006;17.180;2022-09-09T03:55:59;11.00;;;10.00;;
47912;SDS011;33676;51.006;17.180;2022-09-09T03:58:28;11.10;;;10.10;;
47912;SDS011;33676;51.006;17.180;2022-09-09T04:01:02;10.60;;;9.50;;
47912;SDS011;33676;51.006;17.180;2022-09-09T04:03:32;12.40;;;11.30;;
47912;SDS011;33676;51.006;17.180;2022-09-09T04:06:02;11.70;;;10.60;;
47912;SDS011;33676;51.006;17.180;2022-09-09T04:08:32;11.80;;;10.80;;
47912;SDS011;33676;51.006;17.180;2022-09-09T04:11:01;11.60;;;10.60;;
47912;SDS011;33676;51.006;17.180;2022-09-09T04:13:35;10.40;;;9.50;;
47912;SDS011;33676;51.006;17.180;2022-09-09T04:16:08;11.30;;;10.10;;
47912;SDS011;33676;51.006;17.180;2022-09-09T04:18:38;11.40;;;10.40;;
47912;SDS011;33676;51.006;17.180;2022-09-09T04:21:09;10.60;;;9.70;;
47912;SDS011;33676;51.006;17.180;2022-09-09T04:23:42;12.00;;;11.00;;
47912;SDS011;33676;51.006;17.180;2022-09-09T04:26:11;12.30;;;11.30;;
47912;SDS011;33676;51.006;17.180;2022-09-09T04:28:39;12.60;;;11.60;;
47912;SDS011;33676;51.006;17.180;2022-09-09T04:31:10;12.20;;;11.20;;
47912;SDS011;33676;51.006;17.180;2022-09-09T04:33:44;12.40;;;11.20;;
47912;SDS011;33676;51.006;17.180;2022-09-09T04:36:13;12.40;;;11.20;;
47912;SDS011;33676;51.006;17.180;2022-09-09T04:38:41;12.60;;;11.50;;
47912;SDS011;33676;51.006;17.180;2022-09-09T04:41:10;11.10;;;10.30;;
47912;SDS011;33676;51.006;17.180;2022-09-09T04:43:39;12.40;;;11.30;;
47912;SDS011;33676;51.006;17.180;2022-09-09T04:46:08;11.40;;;10.30;;
47912;SDS011;33676;51.006;17.180;2022-09-09T04:48:37;12.00;;;11.00;;
47912;SDS011;33676;51.006;17.180;2022-09-09T04:51:13;11.50;;;10.40;;
47912;SDS011;33676;51.006;17.180;2022-09-09T04:53:41;12.50;;;11.40;;
47912;SDS011;33676;51.006;17.180;2022-09-09T04:56:12;9.70;;;8.90;;
47912;SDS011;33676;51.006;17.180;2022-09-09T04:58:42;10.10;;;9.20;;
47912;SDS011;33676;51.006;17.180;2022-09-09T05:01:16;11.00;;;10.10;;
47912;SDS011;33676;51.006;17.180;2022-09-09T05:03:47;11.20;;;10.30;;
47912;SDS011;33676;51.006;17.180;2022-09-09T05:06:20;10.40;;;9.40;;
47912;SDS011;33676;51.006;17.180;2022-09-09T05:08:52;12.00;;;10.70;;
47912;SDS011;33676;51.006;17.180;2022-09-09T05:11:27;11.30;;;10.30;;
47912;SDS011;33676;51.006;17.180;2022-09-09T05:14:04;17.30;;;10.50;;
47912;SDS011;33676;51.006;17.180;2022-09-09T05:16:33;11.10;;;10.10;;
47912;SDS011;33676;51.006;17.180;2022-09-09T05:19:01;12.40;;;11.20;;
47912;SDS011;33676;51.006;17.180;2022-09-09T05:21:31;12.70;;;11.50;;
47912;SDS011;33676;51.006;17.180;2022-09-09T05:23:59;13.30;;;12.10;;
47912;SDS011;33676;51.006;17.180;2022-09-09T05:26:30;14.00;;;11.70;;
47912;SDS011;33676;51.006;17.180;2022-09-09T05:29:00;13.50;;;11.90;;
47912;SDS011;33676;51.006;17.180;2022-09-09T05:31:29;14.80;;;11.80;;
47912;SDS011;33676;51.006;17.180;2022-09-09T05:33:59;16.00;;;11.70;;
47912;SDS011;33676;51.006;17.180;2022-09-09T05:36:27;14.60;;;13.10;;
47912;SDS011;33676;51.006;17.180;2022-09-09T05:38:55;11.90;;;10.80;;
47912;SDS011;33676;51.006;17.180;2022-09-09T05:41:24;14.90;;;13.50;;
47912;SDS011;33676;51.006;17.180;2022-09-09T05:43:52;12.10;;;11.00;;
47912;SDS011;33676;51.006;17.180;2022-09-09T05:46:22;11.70;;;10.70;;
47912;SDS011;33676;51.006;17.180;2022-09-09T05:48:53;11.10;;;10.10;;
47912;SDS011;33676;51.006;17.180;2022-09-09T05:51:24;11.70;;;10.60;;
47912;SDS011;33676;51.006;17.180;2022-09-09T05:53:54;12.90;;;11.80;;
47912;SDS011;33676;51.006;17.180;2022-09-09T05:56:29;11.90;;;10.80;;
47912;SDS011;33676;51.006;17.180;2022-09-09T05:58:58;13.20;;;10.80;;
47912;SDS011;33676;51.006;17.180;2022-09-09T06:01:32;13.00;;;11.50;;
47912;SDS011;33676;51.006;17.180;2022-09-09T06:04:02;11.30;;;10.00;;
47912;SDS011;33676;51.006;17.180;2022-09-09T06:06:36;13.30;;;12.00;;
47912;SDS011;33676;51.006;17.180;2022-09-09T06:09:08;12.60;;;11.50;;
47912;SDS011;33676;51.006;17.180;2022-09-09T06:11:39;13.50;;;12.20;;
47912;SDS011;33676;51.006;17.180;2022-09-09T06:14:08;13.30;;;11.30;;
47912;SDS011;33676;51.006;17.180;2022-09-09T06:16:37;12.10;;;11.00;;
47912;SDS011;33676;51.006;17.180;2022-09-09T06:19:06;12.80;;;11.60;;
47912;SDS011;33676;51.006;17.180;2022-09-09T06:21:35;12.10;;;11.20;;
47912;SDS011;33676;51.006;17.180;2022-09-09T06:24:05;11.40;;;10.40;;
47912;SDS011;33676;51.006;17.180;2022-09-09T06:26:37;12.40;;;11.30;;
47912;SDS011;33676;51.006;17.180;2022-09-09T06:29:09;11.70;;;10.70;;
47912;SDS011;33676;51.006;17.180;2022-09-09T06:31:38;12.10;;;10.90;;
47912;SDS011;33676;51.006;17.180;2022-09-09T06:34:07;11.50;;;10.40;;
47912;SDS011;33676;51.006;17.180;2022-09-09T06:36:38;10.80;;;9.40;;
47912;SDS011;33676;51.006;17.180;2022-09-09T06:39:07;10.90;;;9.90;;
47912;SDS011;33676;51.006;17.180;2022-09-09T06:41:42;11.20;;;10.30;;
47912;SDS011;33676;51.006;17.180;2022-09-09T06:44:11;11.90;;;10.90;;
47912;SDS011;33676;51.006;17.180;2022-09-09T06:46:39;11.30;;;10.10;;
47912;SDS011;33676;51.006;17.180;2022-09-09T06:49:08;11.60;;;10.70;;
47912;SDS011;33676;51.006;17.180;2022-09-09T06:51:37;11.00;;;10.00;;
47912;SDS011;33676;51.006;17.180;2022-09-09T06:54:11;9.70;;;9.00;;
47912;SDS011;33676;51.006;17.180;2022-09-09T06:56:40;9.10;;;8.30;;
47912;SDS011;33676;51.006;17.180;2022-09-09T06:59:11;11.30;;;9.90;;
47912;SDS011;33676;51.006;17.180;2022-09-09T07:01:41;8.60;;;8.00;;
47912;SDS011;33676;51.006;17.180;2022-09-09T07:04:23;7.80;;;7.20;;
47912;SDS011;33676;51.006;17.180;2022-09-09T07:06:51;9.30;;;8.60;;
47912;SDS011;33676;51.006;17.180;2022-09-09T07:09:20;8.70;;;8.00;;
47912;SDS011;33676;51.006;17.180;2022-09-09T07:11:50;9.60;;;8.70;;
47912;SDS011;33676;51.006;17.180;2022-09-09T07:14:22;9.30;;;8.60;;
47912;SDS011;33676;51.006;17.180;2022-09-09T07:16:50;8.10;;;7.50;;
47912;SDS011;33676;51.006;17.180;2022-09-09T07:19:23;7.90;;;7.30;;
47912;SDS011;33676;51.006;17.180;2022-09-09T07:21:51;8.60;;;7.90;;
47912;SDS011;33676;51.006;17.180;2022-09-09T07:24:20;8.90;;;8.10;;
47912;SDS011;33676;51.006;17.180;2022-09-09T07:26:48;9.20;;;8.40;;
47912;SDS011;33676;51.006;17.180;2022-09-09T07:29:16;9.00;;;8.20;;
47912;SDS011;33676;51.006;17.180;2022-09-09T07:31:48;8.80;;;8.10;;
47912;SDS011;33676;51.006;17.180;2022-09-09T07:34:16;7.70;;;7.10;;
47912;SDS011;33676;51.006;17.180;2022-09-09T07:36:45;8.50;;;7.90;;
47912;SDS011;33676;51.006;17.180;2022-09-09T07:39:14;7.90;;;7.20;;
47912;SDS011;33676;51.006;17.180;2022-09-09T07:41:47;7.30;;;6.80;;
47912;SDS011;33676;51.006;17.180;2022-09-09T07:44:21;7.80;;;7.10;;
47912;SDS011;33676;51.006;17.180;2022-09-09T07:46:50;7.90;;;7.20;;
47912;SDS011;33676;51.006;17.180;2022-09-09T07:49:19;8.50;;;7.70;;
47912;SDS011;33676;51.006;17.180;2022-09-09T07:51:56;6.60;;;6.20;;
47912;SDS011;33676;51.006;17.180;2022-09-09T07:54:25;7.30;;;6.70;;
47912;SDS011;33676;51.006;17.180;2022-09-09T07:56:54;7.30;;;6.70;;
47912;SDS011;33676;51.006;17.180;2022-09-09T07:59:22;7.50;;;6.60;;
47912;SDS011;33676;51.006;17.180;2022-09-09T08:01:52;7.40;;;6.80;;
47912;SDS011;33676;51.006;17.180;2022-09-09T08:04:24;8.20;;;7.70;;
47912;SDS011;33676;51.006;17.180;2022-09-09T08:06:58;7.30;;;6.60;;
47912;SDS011;33676;51.006;17.180;2022-09-09T08:09:28;7.00;;;6.50;;
47912;SDS011;33676;51.006;17.180;2022-09-09T08:11:57;6.60;;;6.10;;
47912;SDS011;33676;51.006;17.180;2022-09-09T08:14:26;7.00;;;6.50;;
47912;SDS011;33676;51.006;17.180;2022-09-09T08:16:54;6.60;;;6.20;;
47912;SDS011;33676;51.006;17.180;2022-09-09T08:19:24;6.30;;;5.90;;
47912;SDS011;33676;51.006;17.180;2022-09-09T08:21:52;7.30;;;6.70;;
47912;SDS011;33676;51.006;17.180;2022-09-09T08:24:22;5.70;;;5.40;;
47912;SDS011;33676;51.006;17.180;2022-09-09T08:26:51;5.40;;;5.10;;
47912;SDS011;33676;51.006;17.180;2022-09-09T08:29:19;5.70;;;5.20;;
47912;SDS011;33676;51.006;17.180;2022-09-09T08:31:50;4.70;;;4.30;;
47912;SDS011;33676;51.006;17.180;2022-09-09T08:34:24;6.40;;;4.50;;
47912;SDS011;33676;51.006;17.180;2022-09-09T08:36:54;5.30;;;4.80;;
47912;SDS011;33676;51.006;17.180;2022-09-09T08:39:23;5.20;;;4.80;;
47912;SDS011;33676;51.006;17.180;2022-09-09T08:50:36;2.70;;;2.60;;
47912;SDS011;33676;51.006;17.180;2022-09-09T08:53:14;2.70;;;2.50;;
47912;SDS011;33676;51.006;17.180;2022-09-09T08:55:55;2.70;;;2.50;;
47912;SDS011;33676;51.006;17.180;2022-09-09T08:58:34;3.20;;;2.40;;
47912;SDS011;33676;51.006;17.180;2022-09-09T09:12:40;2.70;;;2.60;;
47912;SDS011;33676;51.006;17.180;2022-09-09T09:15:16;3.20;;;3.00;;
47912;SDS011;33676;51.006;17.180;2022-09-09T09:17:49;2.90;;;2.60;;
47912;SDS011;33676;51.006;17.180;2022-09-09T09:20:23;2.40;;;2.30;;
47912;SDS011;33676;51.006;17.180;2022-09-09T09:23:16;3.00;;;2.60;;
47912;SDS011;33676;51.006;17.180;2022-09-09T09:25:52;1.90;;;1.80;;
47912;SDS011;33676;51.006;17.180;2022-09-09T09:28:30;1.10;;;1.00;;
47912;SDS011;33676;51.006;17.180;2022-09-09T09:31:10;1.60;;;1.50;;
47912;SDS011;33676;51.006;17.180;2022-09-09T09:36:08;1.90;;;1.70;;
47912;SDS011;33676;51.006;17.180;2022-09-09T09:38:37;2.40;;;2.00;;
47912;SDS011;33676;51.006;17.180;2022-09-09T09:44:27;1.70;;;1.70;;
47912;SDS011;33676;51.006;17.180;2022-09-09T09:47:15;1.80;;;1.70;;
47912;SDS011;33676;51.006;17.180;2022-09-09T09:49:58;2.00;;;1.80;;
47912;SDS011;33676;51.006;17.180;2022-09-09T09:52:31;1.30;;;1.20;;
47912;SDS011;33676;51.006;17.180;2022-09-09T09:55:04;1.80;;;1.10;;
47912;SDS011;33676;51.006;17.180;2022-09-09T09:57:40;2.50;;;2.30;;
47912;SDS011;33676;51.006;17.180;2022-09-09T10:02:43;1.50;;;1.50;;
47912;SDS011;33676;51.006;17.180;2022-09-09T10:05:16;3.00;;;1.70;;
47912;SDS011;33676;51.006;17.180;2022-09-09T10:08:13;2.30;;;2.10;;
47912;SDS011;33676;51.006;17.180;2022-09-09T10:11:02;2.10;;;1.90;;
47912;SDS011;33676;51.006;17.180;2022-09-09T10:14:11;2.40;;;2.10;;
47912;SDS011;33676;51.006;17.180;2022-09-09T10:17:10;3.00;;;1.80;;
47912;SDS011;33676;51.006;17.180;2022-09-09T10:19:58;1.50;;;1.50;;
47912;SDS011;33676;51.006;17.180;2022-09-09T10:22:51;1.00;;;1.00;;
47912;SDS011;33676;51.006;17.180;2022-09-09T10:25:33;1.60;;;1.40;;
47912;SDS011;33676;51.006;17.180;2022-09-09T10:28:37;0.80;;;0.80;;
47912;SDS011;33676;51.006;17.180;2022-09-09T10:37:51;1.00;;;1.00;;
47912;SDS011;33676;51.006;17.180;2022-09-09T10:57:16;1.50;;;1.20;;
47912;SDS011;33676;51.006;17.180;2022-09-09T11:00:10;1.30;;;1.20;;
47912;SDS011;33676;51.006;17.180;2022-09-09T11:02:45;1.70;;;1.00;;
47912;SDS011;33676;51.006;17.180;2022-09-09T11:08:26;1.10;;;1.00;;
47912;SDS011;33676;51.006;17.180;2022-09-09T11:11:10;7.50;;;1.30;;
47912;SDS011;33676;51.006;17.180;2022-09-09T11:19:16;1.20;;;1.10;;
47912;SDS011;33676;51.006;17.180;2022-09-09T11:21:49;1.00;;;1.00;;
47912;SDS011;33676;51.006;17.180;2022-09-09T11:24:40;0.90;;;0.90;;
47912;SDS011;33676;51.006;17.180;2022-09-09T11:27:40;1.00;;;0.90;;
47912;SDS011;33676;51.006;17.180;2022-09-09T11:30:16;0.90;;;0.90;;
47912;SDS011;33676;51.006;17.180;2022-09-09T11:36:38;1.20;;;1.20;;
47912;SDS011;33676;51.006;17.180;2022-09-09T11:44:45;1.40;;;1.10;;
47912;SDS011;33676;51.006;17.180;2022-09-09T11:47:28;0.90;;;0.90;;
47912;SDS011;33676;51.006;17.180;2022-09-09T11:52:44;2.70;;;1.60;;
47912;SDS011;33676;51.006;17.180;2022-09-09T11:58:05;2.00;;;1.20;;
47912;SDS011;33676;51.006;17.180;2022-09-09T12:00:45;1.00;;;1.00;;
47912;SDS011;33676;51.006;17.180;2022-09-09T12:03:48;1.10;;;1.10;;
47912;SDS011;33676;51.006;17.180;2022-09-09T12:06:41;1.90;;;1.10;;
47912;SDS011;33676;51.006;17.180;2022-09-09T12:09:52;0.90;;;0.90;;
47912;SDS011;33676;51.006;17.180;2022-09-09T12:12:30;2.20;;;1.20;;
47912;SDS011;33676;51.006;17.180;2022-09-09T12:15:29;1.30;;;1.20;;
47912;SDS011;33676;51.006;17.180;2022-09-09T12:17:58;0.90;;;0.90;;
47912;SDS011;33676;51.006;17.180;2022-09-09T12:20:31;1.20;;;0.90;;
47912;SDS011;33676;51.006;17.180;2022-09-09T12:37:36;1.20;;;0.90;;
47912;SDS011;33676;51.006;17.180;2022-09-09T12:40:36;6.50;;;2.30;;
47912;SDS011;33676;51.006;17.180;2022-09-09T12:43:22;1.30;;;1.00;;
47912;SDS011;33676;51.006;17.180;2022-09-09T12:45:55;1.20;;;1.20;;
47912;SDS011;33676;51.006;17.180;2022-09-09T12:48:32;1.30;;;1.20;;
47912;SDS011;33676;51.006;17.180;2022-09-09T12:51:06;1.70;;;1.60;;
47912;SDS011;33676;51.006;17.180;2022-09-09T12:53:45;0.90;;;0.90;;
47912;SDS011;33676;51.006;17.180;2022-09-09T12:56:19;1.40;;;1.10;;
47912;SDS011;33676;51.006;17.180;2022-09-09T12:58:51;1.00;;;1.00;;
47912;SDS011;33676;51.006;17.180;2022-09-09T13:01:31;1.40;;;1.30;;
47912;SDS011;33676;51.006;17.180;2022-09-09T13:04:01;1.60;;;1.60;;
47912;SDS011;33676;51.006;17.180;2022-09-09T13:06:31;1.30;;;1.20;;
47912;SDS011;33676;51.006;17.180;2022-09-09T13:09:03;0.90;;;0.90;;
47912;SDS011;33676;51.006;17.180;2022-09-09T13:11:36;1.20;;;1.20;;
47912;SDS011;33676;51.006;17.180;2022-09-09T13:14:06;1.30;;;1.30;;
47912;SDS011;33676;51.006;17.180;2022-09-09T13:16:35;2.60;;;1.20;;
47912;SDS011;33676;51.006;17.180;2022-09-09T13:19:14;1.20;;;1.10;;
47912;SDS011;33676;51.006;17.180;2022-09-09T13:21:44;0.80;;;0.80;;
47912;SDS011;33676;51.006;17.180;2022-09-09T13:24:32;1.30;;;1.20;;
47912;SDS011;33676;51.006;17.180;2022-09-09T13:30:26;1.20;;;1.20;;
47912;SDS011;33676;51.006;17.180;2022-09-09T13:38:21;1.20;;;1.10;;
47912;SDS011;33676;51.006;17.180;2022-09-09T13:41:03;1.60;;;1.50;;
47912;SDS011;33676;51.006;17.180;2022-09-09T13:43:38;1.60;;;1.50;;
47912;SDS011;33676;51.006;17.180;2022-09-09T13:46:32;1.10;;;1.10;;
47912;SDS011;33676;51.006;17.180;2022-09-09T13:49:19;0.80;;;0.80;;
47912;SDS011;33676;51.006;17.180;2022-09-09T13:51:50;1.10;;;1.10;;
47912;SDS011;33676;51.006;17.180;2022-09-09T13:54:21;1.60;;;1.40;;
47912;SDS011;33676;51.006;17.180;2022-09-09T13:56:50;1.20;;;1.00;;
47912;SDS011;33676;51.006;17.180;2022-09-09T13:59:19;1.10;;;1.10;;
47912;SDS011;33676;51.006;17.180;2022-09-09T14:01:48;1.30;;;1.30;;
47912;SDS011;33676;51.006;17.180;2022-09-09T14:04:20;2.40;;;1.20;;
47912;SDS011;33676;51.006;17.180;2022-09-09T14:06:51;1.40;;;1.20;;
47912;SDS011;33676;51.006;17.180;2022-09-09T14:09:19;1.10;;;1.10;;
47912;SDS011;33676;51.006;17.180;2022-09-09T14:11:48;1.40;;;1.20;;
47912;SDS011;33676;51.006;17.180;2022-09-09T14:14:16;1.10;;;1.10;;
47912;SDS011;33676;51.006;17.180;2022-09-09T14:16:44;1.30;;;1.00;;
47912;SDS011;33676;51.006;17.180;2022-09-09T14:19:13;1.80;;;1.60;;
47912;SDS011;33676;51.006;17.180;2022-09-09T14:21:41;1.00;;;1.00;;
47912;SDS011;33676;51.006;17.180;2022-09-09T14:24:10;1.60;;;1.50;;
47912;SDS011;33676;51.006;17.180;2022-09-09T14:26:40;0.90;;;0.90;;
47912;SDS011;33676;51.006;17.180;2022-09-09T14:29:08;1.40;;;1.30;;
47912;SDS011;33676;51.006;17.180;2022-09-09T14:31:37;1.30;;;1.20;;
47912;SDS011;33676;51.006;17.180;2022-09-09T14:34:05;1.40;;;1.40;;
47912;SDS011;33676;51.006;17.180;2022-09-09T14:36:34;1.20;;;1.10;;
47912;SDS011;33676;51.006;17.180;2022-09-09T14:39:03;1.10;;;1.00;;
47912;SDS011;33676;51.006;17.180;2022-09-09T14:41:32;2.80;;;1.60;;
47912;SDS011;33676;51.006;17.180;2022-09-09T14:44:01;1.30;;;1.20;;
47912;SDS011;33676;51.006;17.180;2022-09-09T14:46:29;1.20;;;1.20;;
47912;SDS011;33676;51.006;17.180;2022-09-09T14:48:57;1.70;;;1.00;;
47912;SDS011;33676;51.006;17.180;2022-09-09T14:51:27;1.70;;;1.60;;
47912;SDS011;33676;51.006;17.180;2022-09-09T14:53:58;2.60;;;1.40;;
47912;SDS011;33676;51.006;17.180;2022-09-09T14:56:28;1.60;;;1.20;;
47912;SDS011;33676;51.006;17.180;2022-09-09T14:58:58;0.90;;;0.90;;
47912;SDS011;33676;51.006;17.180;2022-09-09T15:01:29;1.30;;;1.10;;
47912;SDS011;33676;51.006;17.180;2022-09-09T15:04:02;1.50;;;1.40;;
47912;SDS011;33676;51.006;17.180;2022-09-09T15:06:34;1.50;;;1.40;;
47912;SDS011;33676;51.006;17.180;2022-09-09T15:11:36;1.10;;;1.10;;
47912;SDS011;33676;51.006;17.180;2022-09-09T15:14:07;4.90;;;1.80;;
47912;SDS011;33676;51.006;17.180;2022-09-09T15:16:38;2.00;;;1.70;;
47912;SDS011;33676;51.006;17.180;2022-09-09T15:19:08;4.60;;;1.70;;
47912;SDS011;33676;51.006;17.180;2022-09-09T15:21:37;2.10;;;1.80;;
47912;SDS011;33676;51.006;17.180;2022-09-09T15:24:06;1.50;;;1.00;;
47912;SDS011;33676;51.006;17.180;2022-09-09T15:26:37;1.10;;;1.10;;
47912;SDS011;33676;51.006;17.180;2022-09-09T15:29:07;1.90;;;1.40;;
47912;SDS011;33676;51.006;17.180;2022-09-09T15:31:36;1.10;;;1.00;;
47912;SDS011;33676;51.006;17.180;2022-09-09T15:34:06;1.40;;;1.30;;
47912;SDS011;33676;51.006;17.180;2022-09-09T15:36:38;2.60;;;1.40;;
47912;SDS011;33676;51.006;17.180;2022-09-09T15:39:10;1.30;;;1.30;;
47912;SDS011;33676;51.006;17.180;2022-09-09T15:41:44;1.40;;;1.30;;
47912;SDS011;33676;51.006;17.180;2022-09-09T15:44:14;1.50;;;1.30;;
47912;SDS011;33676;51.006;17.180;2022-09-09T15:46:44;1.20;;;1.20;;
47912;SDS011;33676;51.006;17.180;2022-09-09T15:49:21;1.00;;;1.00;;
47912;SDS011;33676;51.006;17.180;2022-09-09T15:51:55;0.90;;;0.90;;
47912;SDS011;33676;51.006;17.180;2022-09-09T15:54:33;1.50;;;1.40;;
47912;SDS011;33676;51.006;17.180;2022-09-09T15:57:05;1.10;;;1.00;;
47912;SDS011;33676;51.006;17.180;2022-09-09T15:59:36;1.80;;;1.00;;
47912;SDS011;33676;51.006;17.180;2022-09-09T16:02:05;1.40;;;1.10;;
47912;SDS011;33676;51.006;17.180;2022-09-09T16:04:34;1.90;;;1.30;;
47912;SDS011;33676;51.006;17.180;2022-09-09T16:07:04;2.00;;;1.40;;
47912;SDS011;33676;51.006;17.180;2022-09-09T16:09:34;1.20;;;1.20;;
47912;SDS011;33676;51.006;17.180;2022-09-09T16:12:04;1.10;;;0.90;;
47912;SDS011;33676;51.006;17.180;2022-09-09T16:14:39;2.10;;;1.30;;
47912;SDS011;33676;51.006;17.180;2022-09-09T16:17:08;1.70;;;1.60;;
47912;SDS011;33676;51.006;17.180;2022-09-09T16:19:37;1.30;;;1.30;;
47912;SDS011;33676;51.006;17.180;2022-09-09T16:22:05;2.00;;;1.40;;
47912;SDS011;33676;51.006;17.180;2022-09-09T16:24:34;1.30;;;1.20;;
47912;SDS011;33676;51.006;17.180;2022-09-09T16:27:03;2.20;;;1.30;;
47912;SDS011;33676;51.006;17.180;2022-09-09T16:29:32;1.00;;;1.00;;
47912;SDS011;33676;51.006;17.180;2022-09-09T16:32:01;1.60;;;1.30;;
47912;SDS011;33676;51.006;17.180;2022-09-09T16:34:31;1.20;;;1.10;;
47912;SDS011;33676;51.006;17.180;2022-09-09T16:37:01;0.90;;;0.90;;
47912;SDS011;33676;51.006;17.180;2022-09-09T16:39:30;1.70;;;1.50;;
47912;SDS011;33676;51.006;17.180;2022-09-09T16:41:59;3.20;;;1.60;;
47912;SDS011;33676;51.006;17.180;2022-09-09T16:44:32;4.90;;;1.80;;
47912;SDS011;33676;51.006;17.180;2022-09-09T16:47:15;1.50;;;1.30;;
47912;SDS011;33676;51.006;17.180;2022-09-09T16:49:44;2.70;;;1.30;;
47912;SDS011;33676;51.006;17.180;2022-09-09T16:52:12;1.40;;;1.30;;
47912;SDS011;33676;51.006;17.180;2022-09-09T16:54:47;3.70;;;1.70;;
47912;SDS011;33676;51.006;17.180;2022-09-09T16:57:15;2.50;;;2.00;;
47912;SDS011;33676;51.006;17.180;2022-09-09T16:59:44;5.20;;;2.90;;
47912;SDS011;33676;51.006;17.180;2022-09-09T17:02:12;4.40;;;2.50;;
47912;SDS011;33676;51.006;17.180;2022-09-09T17:04:41;4.80;;;2.50;;
47912;SDS011;33676;51.006;17.180;2022-09-09T17:07:09;2.50;;;2.00;;
47912;SDS011;33676;51.006;17.180;2022-09-09T17:09:38;3.50;;;2.10;;
47912;SDS011;33676;51.006;17.180;2022-09-09T17:12:06;3.20;;;2.20;;
47912;SDS011;33676;51.006;17.180;2022-09-09T17:14:36;2.50;;;1.80;;